Latest Weather Observations for Williamson

IDQ60801

Issued at 10:32 am EST Saturday 22 July 2017 (issued every 30 minutes, with the page automatically refreshed every 10 minutes)

About weather observations | Map of weather stations | Latest weather observations for QLD | Other Formats
Station Details ID: 033195 Name: WILLIAMSON Lat: -22.47 Lon: 150.18 Height: 27.6 m
Data from the previous 72 hours. | See also: Recent months at Williamson
Date/Time
EST
Temp
°C
App
Temp
°C
Dew
Point
°C
Rel
Hum
%
Delta-T
°C
Wind Press
QNH
hPa
Press
MSL
hPa
Rain since
9am
mm
Dir  Spd
km/h
Gust
km/h
Spd
kts
Gust
kts
22/10:30am 21.3 18.6 8.9 45 6.5 E 13 20 7 11 1022.2 1022.2 0.0
22/10:00am 19.9 17.1 7.0 43 6.5 SSW 11 15 6 8 1022.4 1022.4 0.0
22/09:30am 18.1 15.7 6.9 48 5.6 S 9 15 5 8 1022.5 1022.5 0.0
22/09:00am 16.0 13.8 6.2 52 4.7 SSW 7 11 4 6 1022.7 1022.7 0.0
22/08:30am 13.6 11.4 6.0 60 3.6 SSE 7 13 4 7 1022.4 1022.4 0.0
22/08:00am 10.4 8.8 7.8 84 1.2 S 6 7 3 4 1022.2 1022.2 0.0
22/07:30am 5.6 4.5 5.3 98 0.1 CALM 0 0 0 0 1022.0 1022.0 0.0
22/07:00am 3.4 1.9 2.8 96 0.2 CALM 0 0 0 0 1021.8 1021.8 0.0
22/06:30am 3.3 1.7 2.7 96 0.2 CALM 0 0 0 0 1021.4 1021.4 0.0
22/06:00am 3.4 1.9 2.8 96 0.2 CALM 0 0 0 0 1021.0 1021.0 0.0
22/05:30am 3.7 2.2 3.1 96 0.2 CALM 0 0 0 0 1020.5 1020.5 0.0
22/05:00am 3.8 2.3 3.1 95 0.3 CALM 0 0 0 0 1020.1 1020.1 0.0
22/04:30am 4.2 2.8 3.6 96 0.2 CALM 0 0 0 0 1020.1 1020.1 0.0
22/04:00am 4.4 3.0 3.7 95 0.3 CALM 0 0 0 0 1020.0 1020.0 0.0
22/03:30am 4.5 3.1 3.8 95 0.3 CALM 0 0 0 0 1020.0 1020.0 0.0
22/03:00am 4.7 3.4 4.0 95 0.3 CALM 0 0 0 0 1020.1 1020.1 0.0
22/02:30am 4.6 3.3 3.9 95 0.3 CALM 0 0 0 0 1020.1 1020.1 0.0
22/02:00am 4.7 3.4 4.0 95 0.3 CALM 0 0 0 0 1020.0 1020.0 0.0
22/01:30am 5.1 3.8 4.2 94 0.4 CALM 0 0 0 0 1020.3 1020.3 0.0
22/01:00am 5.8 4.6 4.8 93 0.4 CALM 0 0 0 0 1020.4 1020.4 0.0
22/12:30am 6.6 5.2 5.6 93 0.4 SSE 2 6 1 3 1020.5 1020.5 0.0
22/12:00am 7.2 5.1 6.0 92 0.5 S 6 7 3 4 1020.5 1020.5 0.0
 
Date/Time
EST
Temp
°C
App
Temp
°C
Dew
Point
°C
Rel
Hum
%
Delta-T
°C
Wind Press
QNH
hPa
Press
MSL
hPa
Rain since
9am
mm
Dir  Spd
km/h
Gust
km/h
Spd
kts
Gust
kts
21/11:30pm 7.6 6.8 6.4 92 0.5 CALM 0 0 0 0 1020.7 1020.7 0.0
21/11:00pm 7.8 7.0 6.4 91 0.6 CALM 0 0 0 0 1020.8 1020.8 0.0
21/10:30pm 8.4 7.7 6.9 90 0.7 CALM 0 0 0 0 1021.0 1021.0 0.0
21/10:00pm 8.9 8.2 7.0 88 0.9 CALM 0 0 0 0 1020.9 1020.9 0.0
21/09:30pm 9.8 9.3 7.7 87 1.0 CALM 0 0 0 0 1021.0 1021.0 0.0
21/09:00pm 10.2 9.7 7.8 85 1.2 CALM 0 0 0 0 1020.8 1020.8 0.0
21/08:30pm 11.2 10.8 8.2 82 1.5 CALM 0 0 0 0 1020.5 1020.5 0.0
21/08:00pm 12.4 12.2 8.9 79 1.7 CALM 0 0 0 0 1020.2 1020.2 0.0
21/07:30pm 12.7 11.3 9.0 78 1.9 NE 6 7 3 4 1019.9 1019.8 0.0
21/07:00pm 14.3 14.2 9.5 73 2.5 CALM 0 0 0 0 1019.5 1019.4 0.0
21/06:30pm 15.6 15.6 9.9 69 3.0 CALM 0 0 0 0 1018.9 1018.8 0.0
21/06:00pm 17.6 16.6 10.2 62 3.9 NE 6 7 3 4 1018.5 1018.4 0.0
21/05:30pm 19.0 17.3 10.0 56 4.8 NE 9 19 5 10 1018.0 1017.9 0.0
21/05:00pm 20.1 17.4 8.8 48 5.9 NNE 13 20 7 11 1017.6 1017.5 0.0
21/04:30pm 21.7 19.3 5.2 34 8.2 NNE 7 13 4 7 1017.2 1017.1 0.0
21/04:00pm 23.5 20.5 1.8 24 10.2 SW 7 15 4 8 1016.8 1016.7 0.0
21/03:30pm 23.2 18.7 2.1 25 10.0 WSW 15 20 8 11 1016.7 1016.6 0.0
21/03:00pm 23.0 19.2 1.9 25 9.9 SW 11 19 6 10 1016.6 1016.5 0.0
21/02:30pm 23.8 19.4 2.6 25 10.2 SW 15 24 8 13 1017.0 1016.9 0.0
21/02:00pm 23.1 18.4 3.1 27 9.6 SW 17 28 9 15 1016.9 1016.8 0.0
21/01:30pm 22.6 18.3 1.0 24 9.9 S 13 24 7 13 1017.2 1017.1 0.0
21/01:00pm 22.8 18.1 1.2 24 10.0 SSW 15 24 8 13 1017.3 1017.2 0.0
21/12:30pm 22.1 17.5 1.7 26 9.5 S 15 22 8 12 1017.7 1017.6 0.0
21/12:00pm 21.3 17.2 2.1 28 8.9 SSW 13 26 7 14 1018.6 1018.5 0.0
21/11:30am 20.6 15.7 2.0 29 8.6 S 17 28 9 15 1018.9 1018.8 0.0
21/11:00am 20.1 16.0 2.0 30 8.3 SSE 13 22 7 12 1019.2 1019.1 0.0
21/10:30am 19.4 14.9 4.0 36 7.3 S 17 24 9 13 1019.7 1019.6 0.0
21/10:00am 18.0 12.9 3.1 37 6.9 S 19 28 10 15 1020.3 1020.3 0.0
21/09:30am 17.3 12.8 4.3 42 6.1 S 17 24 9 13 1020.8 1020.8 0.0
21/09:00am 15.8 10.6 3.6 44 5.6 SSW 20 30 11 16 1021.0 1021.0 0.0
21/08:30am 14.8 10.7 4.5 50 4.8 SSW 15 20 8 11 1020.8 1020.8 0.0
21/08:00am 11.3 9.6 7.4 77 1.9 SW 6 15 3 8 1020.0 1020.0 0.0
21/07:59am 10.7 9.3 7.4 80 1.6 SW 4 15 2 8 1019.9 1019.8 0.0
21/07:30am 5.7 4.6 5.3 97 0.2 CALM 0 0 0 0 1019.7 1019.6 0.0
21/07:00am 3.7 1.8 3.0 95 0.3 W 2 7 1 4 1019.4 1019.3 0.0
21/06:30am 3.8 2.3 3.1 95 0.3 CALM 0 0 0 0 1019.1 1019.0 0.0
21/06:00am 4.0 2.5 3.1 94 0.4 CALM 0 0 0 0 1018.9 1018.8 0.0
21/05:30am 4.5 3.1 3.6 94 0.4 CALM 0 0 0 0 1018.5 1018.4 0.0
21/05:00am 5.3 3.4 4.7 96 0.3 SSW 4 11 2 6 1018.2 1018.1 0.0
21/04:30am 4.4 2.6 3.7 95 0.3 S 2 6 1 3 1018.2 1018.1 0.0
21/04:00am 4.4 3.0 3.5 94 0.4 CALM 0 0 0 0 1017.9 1017.8 0.0
21/03:30am 4.7 3.3 3.7 93 0.4 CALM 0 0 0 0 1018.0 1017.9 0.0
21/03:00am 5.2 3.9 4.2 93 0.4 CALM 0 0 0 0 1018.0 1017.9 0.0
21/02:30am 5.4 4.1 4.2 92 0.5 CALM 0 0 0 0 1018.0 1017.9 0.0
21/02:00am 5.7 4.4 4.3 91 0.6 CALM 0 0 0 0 1018.0 1017.9 0.0
21/01:30am 6.3 4.5 5.3 93 0.4 S 4 7 2 4 1018.1 1018.0 0.0
21/01:00am 6.1 4.9 4.7 91 0.6 CALM 0 0 0 0 1018.1 1018.0 0.0
21/12:30am 6.4 5.3 4.9 90 0.7 CALM 0 0 0 0 1018.3 1018.2 0.0
21/12:00am 6.7 5.6 5.2 90 0.7 CALM 0 2 0 1 1018.2 1018.1 0.0
 
Date/Time
EST
Temp
°C
App
Temp
°C
Dew
Point
°C
Rel
Hum
%
Delta-T
°C
Wind Press
QNH
hPa
Press
MSL
hPa
Rain since
9am
mm
Dir  Spd
km/h
Gust
km/h
Spd
kts
Gust
kts
20/11:30pm 7.5 6.2 5.8 89 0.8 SSE 2 6 1 3 1018.7 1018.6 0.0
20/11:00pm 7.4 6.4 5.4 87 0.9 CALM 0 0 0 0 1018.6 1018.5 0.0
20/10:30pm 7.7 6.6 5.3 85 1.1 CALM 0 0 0 0 1018.5 1018.4 0.0
20/10:00pm 8.3 7.3 5.6 83 1.2 CALM 0 0 0 0 1018.7 1018.6 0.0
20/09:30pm 9.1 8.2 6.2 82 1.3 CALM 0 0 0 0 1018.8 1018.7 0.0
20/09:00pm 9.3 8.4 6.0 80 1.5 CALM 0 0 0 0 1018.6 1018.5 0.0
20/08:30pm 10.1 8.5 6.4 78 1.7 SW 4 7 2 4 1018.3 1018.2 0.0
20/08:00pm 10.7 9.8 6.1 73 2.1 CALM 0 0 0 0 1018.2 1018.1 0.0
20/07:30pm 11.7 10.5 6.4 70 2.5 ESE 2 6 1 3 1017.8 1017.7 0.0
20/07:00pm 12.4 10.9 6.7 68 2.7 NNE 4 9 2 5 1017.6 1017.5 0.0
20/06:30pm 13.6 12.8 6.5 62 3.4 CALM 0 0 0 0 1017.4 1017.3 0.0
20/06:00pm 15.4 14.1 6.2 54 4.4 NE 2 7 1 4 1017.0 1016.9 0.0
20/05:30pm 18.4 16.3 5.9 44 6.1 NNE 6 9 3 5 1016.7 1016.6 0.0
20/05:00pm 19.9 17.3 6.3 41 6.8 NE 9 13 5 7 1016.5 1016.4 0.0
20/04:30pm 20.7 18.1 5.9 38 7.4 NNE 9 15 5 8 1016.3 1016.2 0.0
20/04:00pm 22.2 20.1 6.0 35 8.2 ENE 6 11 3 6 1016.0 1015.9 0.0
20/03:30pm 21.6 19.2 5.1 34 8.2 NE 7 13 4 7 1016.0 1015.9 0.0
20/03:00pm 22.3 18.9 1.9 26 9.5 ESE 9 17 5 9 1015.9 1015.8 0.0
20/02:30pm 22.0 18.7 2.2 27 9.3 SE 9 17 5 9 1016.2 1016.1 0.0
20/02:00pm 21.6 17.4 1.8 27 9.2 SSW 13 19 7 10 1016.5 1016.4 0.0
20/01:30pm 21.3 17.6 2.1 28 8.9 S 11 19 6 10 1016.6 1016.5 0.0
20/01:00pm 21.1 17.9 2.9 30 8.6 E 9 15 5 8 1017.2 1017.1 0.0
20/12:30pm 20.4 16.3 2.3 30 8.4 SSW 13 22 7 12 1017.9 1017.8 0.0
20/12:00pm 20.1 16.1 2.9 32 8.0 SSW 13 20 7 11 1018.5 1018.4 0.0
20/11:30am 19.6 15.2 2.9 33 7.8 SSE 15 24 8 13 1018.9 1018.8 0.0
20/11:00am 18.7 13.6 2.9 35 7.3 S 19 26 10 14 1019.3 1019.2 0.0
20/10:30am 17.7 12.4 2.8 37 6.8 S 20 26 11 14 1019.8 1019.7 0.0
20/10:00am 17.2 12.1 2.8 38 6.6 S 19 33 10 18 1020.2 1020.2 0.0
20/09:30am 16.6 11.0 3.3 41 6.1 SSW 22 32 12 17 1020.5 1020.5 0.0
20/09:00am 15.7 11.7 2.8 42 5.8 S 13 20 7 11 1020.3 1020.3 0.0
20/08:30am 14.1 11.3 3.0 47 5.0 SSE 7 11 4 6 1020.2 1020.2 0.0
20/08:00am 11.4 9.4 2.4 54 3.9 SE 2 7 1 4 1020.2 1020.2 0.0
20/07:30am 6.2 3.8 2.3 76 1.6 ENE 4 7 2 4 1019.7 1019.6 0.0
20/07:00am 3.7 1.5 0.9 82 1.1 SE 2 7 1 4 1019.2 1019.1 0.0
20/06:30am 4.0 1.0 1.0 81 1.2 S 6 9 3 5 1019.1 1019.0 0.0
20/06:00am 3.6 0.6 0.8 82 1.1 NNE 6 9 3 5 1018.8 1018.7 0.0
20/05:30am 4.1 1.9 1.0 80 1.2 SSE 2 6 1 3 1018.5 1018.4 0.0
20/05:00am 3.6 1.6 0.1 78 1.3 CALM 0 0 0 0 1018.2 1018.1 0.0
20/04:30am 4.1 2.2 0.3 76 1.4 CALM 0 0 0 0 1017.9 1017.8 0.0
20/04:00am 4.7 2.8 0.5 74 1.6 CALM 0 0 0 0 1017.7 1017.6 0.0
20/03:30am 5.0 3.0 0.2 71 1.8 CALM 0 0 0 0 1017.5 1017.4 0.0
20/03:00am 5.2 3.2 0.2 70 1.9 CALM 0 0 0 0 1017.3 1017.2 0.0
20/02:30am 5.5 3.5 -0.3 66 2.2 CALM 0 0 0 0 1017.3 1017.2 0.0
20/02:00am 6.7 4.0 0.4 64 2.5 SSE 4 7 2 4 1017.5 1017.4 0.0
20/01:30am 7.5 4.5 0.5 61 2.8 SW 6 9 3 5 1017.6 1017.5 0.0
20/01:00am 7.8 5.1 0.1 58 3.0 N 4 7 2 4 1017.7 1017.6 0.0
20/12:30am 10.0 8.0 -0.2 49 4.1 CALM 0 0 0 0 1017.6 1017.5 0.0
20/12:00am 12.0 9.0 -1.9 38 5.4 SSW 4 11 2 6 1017.7 1017.6 0.0
 
Date/Time
EST
Temp
°C
App
Temp
°C
Dew
Point
°C
Rel
Hum
%
Delta-T
°C
Wind Press
QNH
hPa
Press
MSL
hPa
Rain since
9am
mm
Dir  Spd
km/h
Gust
km/h
Spd
kts
Gust
kts
19/11:30pm 13.6 8.4 -0.1 39 5.7 SSW 17 24 9 13 1017.6 1017.5 0.0
19/11:00pm 9.8 7.9 0.7 53 3.7 CALM 0 0 0 0 1018.1 1018.0 0.0
19/10:30pm 11.5 9.7 0.9 48 4.4 CALM 0 0 0 0 1018.2 1018.1 0.0
19/10:00pm 13.0 9.8 -0.6 39 5.5 S 6 9 3 5 1018.1 1018.0 0.0
19/09:30pm 13.8 9.5 -1.4 35 6.2 SSW 11 15 6 8 1017.8 1017.7 0.0
19/09:00pm 14.0 10.9 -2.8 31 6.6 E 4 7 2 4 1017.6 1017.5 0.0
19/08:30pm 17.7 14.0 -4.3 22 8.7 SSE 6 11 3 6 1017.2 1017.1 0.0
19/08:00pm 19.7 14.0 -7.6 15 10.3 SSW 15 20 8 11 1016.5 1016.4 0.0
19/07:30pm 21.2 15.1 -8.3 13 11.2 SW 17 22 9 12 1015.9 1015.8 0.0
19/07:00pm 22.6 15.1 -8.2 12 11.9 SSW 24 32 13 17 1015.5 1015.4 0.0
19/06:30pm 22.6 16.3 -3.7 17 11.1 SW 20 32 11 17 1014.8 1014.7 0.0
19/06:00pm 23.3 17.1 -4.8 15 11.6 SW 19 28 10 15 1014.4 1014.3 0.0
19/05:30pm 24.0 18.7 -0.3 20 11.0 SW 17 24 9 13 1014.1 1014.0 0.0
19/05:08pm 25.0 17.8 0.5 20 11.4 SW 28 46 15 25 1013.7 1013.6 0.0
19/05:00pm 25.3 20.0 2.1 22 11.1 SW 19 35 10 19 1013.5 1013.4 0.0
19/04:30pm 26.0 20.1 2.0 21 11.6 WSW 22 35 12 19 1013.0 1012.9 0.0
19/04:00pm 26.8 20.7 2.7 21 11.8 WSW 24 39 13 21 1012.5 1012.4 0.0
19/03:30pm 27.0 21.0 3.5 22 11.7 SW 24 35 13 19 1012.4 1012.3 0.0
19/03:00pm 27.6 21.9 2.6 20 12.3 WSW 22 41 12 22 1012.3 1012.2 0.0
19/02:30pm 27.0 22.1 6.9 28 10.6 SW 22 32 12 17 1012.3 1012.2 0.0
19/02:00pm 27.0 21.7 6.9 28 10.6 WSW 24 37 13 20 1012.6 1012.5 0.0
19/01:30pm 27.0 22.4 8.0 30 10.2 SW 22 37 12 20 1012.9 1012.8 0.0
19/01:00pm 26.9 22.7 8.4 31 10.0 SW 20 33 11 18 1013.2 1013.1 0.0
19/12:30pm 26.6 22.6 9.0 33 9.6 SSW 20 32 11 17 1013.9 1013.8 0.0
19/12:00pm 26.1 22.7 11.1 39 8.5 SW 20 33 11 18 1014.5 1014.4 0.0
19/11:30am 25.3 21.9 11.1 41 8.0 SW 20 39 11 21 1015.0 1014.9 0.0
19/11:00am 25.3 22.5 13.2 47 7.1 SW 20 30 11 16 1015.1 1015.0 0.0

Other Formats:

Comma delimited format used in spreadsheet applications
http://www.bom.gov.au/fwo/IDQ60801/IDQ60801.95370.axf

JavaScript Object Notation format (JSON) in row-major order
http://www.bom.gov.au/fwo/IDQ60801/IDQ60801.95370.json